Aérodrome :
LOGIN :

S'inscrire | Disclaimer

   EN    FR    IT 

 










Légende :    VFR   VFR Marginal   IFR   IFR Intensif   IFR Très Intensif
Visi : 
Plafond : 
>= 8 km
>= 3000ft
5 à 8 km
1000 à 3000 ft
1500m à 5 km
500 à 1000 ft
800 à 1500m
200 à 500 ft
< 800m
< 200 ft
Symboles :   Orages  Brouillard  Fortes neiges  Fortes précipitations  Vent > 20 kt
SIGMETs :   Divers  Orages  Givrage  Turbulence  Onde Orograph.  Cendres Volcan.






- Altitude de l'aérodrome : 686 ft
- Code IATA : URS


UUOK - Vostochny

DERNIER METAR :
  • 151400Z 14002MPS 110V170 8000 OVC008 M04/M06 Q1005 R30/090060 NOSIG RMK QFE735/0980

METARs EXPIRÉS :
  • 151330Z 16003MPS 8000 OVC007 M04/M06 Q1005 R30/090060 NOSIG RMK QFE735/0981
  • 151300Z 16003MPS 9000 OVC007 M04/M06 Q1006 R30/090060 NOSIG RMK QFE736/0981
  • 151230Z 16003MPS 120V180 9000 OVC008 M04/M05 Q1006 R30/090060 NOSIG RMK QFE736/0981
  • 151200Z 16004MPS 120V190 9000 OVC008 M04/M05 Q1006 R30/090060 NOSIG RMK QFE736/0981
  • 151130Z 17004MPS 9000 OVC008 M04/M05 Q1006 R30/090060 NOSIG RMK QFE736/0981
  • 151100Z 17003MPS 090V190 8000 OVC008 M04/M05 Q1006 R30/090060 NOSIG RMK QFE736/0981

TAF TAF UUOK
Valide du 15 à 12h jusqu'au 15 à 21h UTC


151100Z 1512/1521 16003MPS 5000 -SN BR BKN006
TEMPO 1512/1518 2100 -SN BR OVC004



MET'MAP, la Météo Aéronautique d'un coup d'oeil ! - Copyright ORBIFLY Décembre 2007 - Disclaimer

ORBIFLY MET'MAP TEAM :

Programmation & Développement : Alexandra Zaïnal
Sur une idée originale de : Baudouin d'Aumeries
Assistance à la programmation : Marc-Olivier Méhu
Soutien technique & logistique : Manuel Goepfert

Contact : metmap@orbifly.com




SOURCES & CREDITS :

   NOAA